Time;durP1;ratioP1;P1;durP2;ratioP2;P2;SDS_P1;SDS_P2;PMS_P1;PMS_P2;Temp;Humidity;BMP_temperature;BMP_pressure;BME280_temperature;BME280_humidity;BME280_pressure;Samples;Min_cycle;Max_cycle;Signal;HPM_P1;HPM_P2
2022/07/25 00:00:30;;;;;;;8.35;5.82;;;;;;;17.11;74.02;98479.38;4202541;28;20032;-71
2022/07/25 00:02:30;;;;;;;6.50;5.60;;;;;;;17.02;74.91;98465.13;4202835;28;20055;-71
2022/07/25 00:04:31;;;;;;;6.50;5.90;;;;;;;17.00;74.81;98473.16;4204291;28;20040;-71
2022/07/25 00:06:31;;;;;;;7.88;6.55;;;;;;;16.96;75.12;98466.00;4203115;28;20391;-71
2022/07/25 00:08:31;;;;;;;6.40;5.72;;;;;;;16.94;73.70;98462.84;4201054;28;20210;-71
2022/07/25 00:10:32;;;;;;;7.20;5.18;;;;;;;16.91;74.83;98458.13;4201266;28;20318;-71
2022/07/25 00:12:32;;;;;;;8.82;6.15;;;;;;;16.88;74.62;98450.56;4200883;28;20089;-71
2022/07/25 00:14:33;;;;;;;8.20;6.03;;;;;;;16.84;74.37;98451.41;4203642;28;20043;-71
2022/07/25 00:16:33;;;;;;;9.23;6.13;;;;;;;16.80;74.63;98459.06;4200220;28;20046;-71
2022/07/25 00:18:34;;;;;;;7.07;5.53;;;;;;;16.79;74.15;98445.50;4201144;28;20059;-71
2022/07/25 00:20:34;;;;;;;7.03;5.80;;;;;;;16.74;74.50;98455.16;4201291;28;20036;-71
2022/07/25 00:22:34;;;;;;;8.88;6.50;;;;;;;16.71;75.46;98453.19;4201131;28;20077;-71
2022/07/25 00:24:35;;;;;;;8.35;5.57;;;;;;;16.68;75.21;98456.00;4201425;28;20152;-71
2022/07/25 00:26:35;;;;;;;6.93;5.70;;;;;;;16.69;74.91;98452.81;4203810;28;20040;-71
2022/07/25 00:28:35;;;;;;;6.60;5.90;;;;;;;16.70;76.23;98448.00;4200600;28;20055;-71
2022/07/25 00:30:36;;;;;;;6.05;5.45;;;;;;;16.72;74.47;98452.00;4200616;28;20046;-71
2022/07/25 00:32:36;;;;;;;7.55;6.18;;;;;;;16.71;75.16;98447.59;4203578;28;20063;-71
2022/07/25 00:34:36;;;;;;;7.25;6.00;;;;;;;16.70;75.69;98454.41;4202327;28;20426;-71
2022/07/25 00:36:37;;;;;;;8.18;6.55;;;;;;;16.67;75.89;98452.41;4203840;28;20036;-71
2022/07/25 00:38:37;;;;;;;7.35;5.78;;;;;;;16.67;75.24;98448.84;4201045;28;20093;-71
2022/07/25 00:40:37;;;;;;;6.88;6.18;;;;;;;16.63;74.61;98446.06;4203565;28;20143;-71
2022/07/25 00:42:38;;;;;;;7.10;6.10;;;;;;;16.64;74.56;98444.88;4202874;28;20494;-71
2022/07/25 00:44:38;;;;;;;7.28;6.20;;;;;;;16.62;74.91;98443.72;4201360;28;20036;-71
2022/07/25 00:46:38;;;;;;;8.52;6.72;;;;;;;16.58;75.11;98449.34;4201597;28;20044;-71
2022/07/25 00:48:39;;;;;;;8.57;6.68;;;;;;;16.53;76.19;98452.59;4201927;28;20048;-71
2022/07/25 00:50:39;;;;;;;7.80;5.93;;;;;;;16.46;76.68;98453.47;4200833;28;20055;-71
2022/07/25 00:52:40;;;;;;;7.20;6.00;;;;;;;16.46;76.47;98447.09;4202715;28;20045;-71
2022/07/25 00:54:40;;;;;;;6.45;5.78;;;;;;;16.43;76.37;98448.72;4200674;28;20449;-71
2022/07/25 00:56:42;;;;;;;8.35;5.88;;;;;;;16.29;78.84;98441.31;4200893;28;20094;-71
2022/07/25 00:58:44;;;;;;;7.20;6.10;;;;;;;16.27;78.92;98437.38;4200686;28;20089;-71
2022/07/25 01:00:45;;;;;;;7.88;6.85;;;;;;;16.21;78.86;98434.22;4201237;28;20043;-71
2022/07/25 01:02:45;;;;;;;8.02;6.10;;;;;;;16.16;78.97;98437.50;4201484;28;20079;-71
2022/07/25 01:04:46;;;;;;;7.35;6.15;;;;;;;16.15;78.75;98435.13;4200026;28;20040;-71
2022/07/25 01:06:46;;;;;;;6.75;5.97;;;;;;;16.12;78.73;98436.72;4201025;28;20051;-71
2022/07/25 01:08:47;;;;;;;6.78;5.90;;;;;;;16.11;79.11;98435.16;4202022;28;20050;-71
2022/07/25 01:10:48;;;;;;;7.40;6.15;;;;;;;16.11;78.76;98437.16;4201516;28;20056;-71
2022/07/25 01:12:51;;;;;;;7.85;6.45;;;;;;;16.10;78.07;98430.78;4199152;28;20127;-71
2022/07/25 01:14:52;;;;;;;10.13;6.60;;;;;;;16.08;78.65;98433.19;4199156;28;20115;-71
2022/07/25 01:16:52;;;;;;;7.88;6.53;;;;;;;16.06;79.21;98432.84;4202138;28;20582;-71
2022/07/25 01:18:52;;;;;;;7.57;5.82;;;;;;;16.01;78.87;98430.50;4201394;28;20491;-71
2022/07/25 01:20:53;;;;;;;10.07;6.20;;;;;;;16.00;79.50;98431.69;4200323;28;20048;-71
2022/07/25 01:22:54;;;;;;;7.82;6.35;;;;;;;15.94;78.84;98425.78;4201028;28;20490;-71
2022/07/25 01:24:54;;;;;;;7.75;5.68;;;;;;;15.92;79.83;98424.63;4200793;28;20089;-71
2022/07/25 01:26:54;;;;;;;8.60;6.40;;;;;;;15.91;79.27;98431.41;4200187;28;20140;-71
2022/07/25 01:28:55;;;;;;;7.68;6.35;;;;;;;15.91;78.94;98426.63;4201665;28;20043;-71
2022/07/25 01:30:56;;;;;;;7.93;6.40;;;;;;;15.86;79.04;98426.25;4201533;28;20044;-71
2022/07/25 01:32:56;;;;;;;8.80;5.88;;;;;;;15.80;79.72;98414.75;4202300;28;20479;-71
2022/07/25 01:34:57;;;;;;;8.70;6.22;;;;;;;15.76;80.00;98424.38;4202418;28;20757;-71
2022/07/25 01:36:57;;;;;;;7.30;6.10;;;;;;;15.73;80.44;98424.00;4200016;28;20341;-71
2022/07/25 01:38:57;;;;;;;6.45;5.60;;;;;;;15.78;79.27;98428.34;4200365;28;20171;-70
2022/07/25 01:40:58;;;;;;;7.97;6.50;;;;;;;15.80;78.24;98417.53;4201194;28;20048;-70
2022/07/25 01:42:58;;;;;;;6.15;5.45;;;;;;;15.75;79.68;98414.44;4203159;28;20036;-70
2022/07/25 01:44:59;;;;;;;7.07;6.38;;;;;;;15.75;78.87;98417.22;4201957;28;20127;-70
2022/07/25 01:46:59;;;;;;;7.18;5.97;;;;;;;15.71;79.04;98411.66;4203050;28;20051;-70
2022/07/25 01:49:00;;;;;;;11.90;6.80;;;;;;;15.69;79.87;98419.66;4202565;28;20048;-70
2022/07/25 01:51:00;;;;;;;9.00;6.57;;;;;;;15.62;80.07;98409.38;4203426;28;20046;-70
2022/07/25 01:53:00;;;;;;;6.20;5.57;;;;;;;15.61;80.68;98415.34;4203543;28;20048;-70
2022/07/25 01:55:01;;;;;;;7.57;6.53;;;;;;;15.58;81.65;98414.16;4201447;28;20032;-70
2022/07/25 01:57:01;;;;;;;7.68;6.30;;;;;;;15.57;80.43;98411.78;4202504;28;20409;-70
2022/07/25 01:59:02;;;;;;;7.18;6.35;;;;;;;15.59;79.42;98409.38;4201915;28;20372;-70
2022/07/25 02:01:02;;;;;;;6.85;5.68;;;;;;;15.56;81.19;98410.22;4203475;28;20815;-70
2022/07/25 02:05:32;;;;;;;6.97;6.22;;;;;;;15.47;82.31;98399.50;4197742;28;20044;-70
2022/07/25 02:07:33;;;;;;;7.05;6.13;;;;;;;15.45;81.90;98399.16;4201305;28;20048;-71
2022/07/25 02:09:33;;;;;;;8.18;6.90;;;;;;;15.37;82.21;98392.84;4202486;28;20055;-70
2022/07/25 02:11:35;;;;;;;9.57;6.40;;;;;;;15.39;81.70;98390.44;4201771;28;20036;-70
2022/07/25 02:13:35;;;;;;;7.95;6.97;;;;;;;15.38;81.70;98385.25;4203661;28;20064;-70
2022/07/25 02:15:35;;;;;;;7.53;6.53;;;;;;;15.39;79.84;98386.84;4200514;28;20092;-70
2022/07/25 02:17:36;;;;;;;10.27;6.60;;;;;;;15.40;80.79;98391.25;4201003;28;20272;-71
2022/07/25 02:19:36;;;;;;;10.10;7.20;;;;;;;15.37;81.19;98389.25;4201744;28;20040;-71
2022/07/25 02:21:36;;;;;;;8.48;6.22;;;;;;;15.35;81.06;98388.88;4202447;28;20048;-71
2022/07/25 02:23:37;;;;;;;7.18;5.95;;;;;;;15.31;80.84;98383.34;4202311;28;20606;-71
2022/07/25 02:25:37;;;;;;;8.75;6.13;;;;;;;15.30;80.73;98375.38;4202474;28;20375;-71
2022/07/25 02:27:37;;;;;;;7.82;6.30;;;;;;;15.28;80.98;98384.16;4201636;28;20055;-71
2022/07/25 02:29:38;;;;;;;9.27;6.55;;;;;;;15.29;80.39;98384.94;4201304;28;20062;-70
2022/07/25 02:31:38;;;;;;;6.88;5.88;;;;;;;15.26;81.32;98378.22;4202460;28;20044;-70
2022/07/25 02:33:38;;;;;;;9.13;6.70;;;;;;;15.27;81.07;98382.59;4202332;28;20077;-71
2022/07/25 02:35:39;;;;;;;8.23;6.88;;;;;;;15.27;81.53;98376.22;4203113;28;20036;-71
2022/07/25 02:37:40;;;;;;;8.88;6.78;;;;;;;15.23;82.13;98369.91;4202334;28;20044;-71
2022/07/25 02:39:40;;;;;;;6.97;6.15;;;;;;;15.21;82.17;98372.28;4202317;28;20341;-71
2022/07/25 02:41:41;;;;;;;8.65;6.63;;;;;;;15.18;82.47;98371.13;4202156;28;20329;-71
2022/07/25 02:43:42;;;;;;;7.93;6.85;;;;;;;15.14;82.06;98370.34;4202252;28;20411;-71
2022/07/25 02:45:42;;;;;;;13.98;7.47;;;;;;;15.09;83.15;98370.81;4201151;28;20226;-71
2022/07/25 02:47:43;;;;;;;8.43;6.57;;;;;;;15.08;81.73;98363.66;4202768;28;20036;-71
2022/07/25 02:49:43;;;;;;;7.88;6.82;;;;;;;15.06;81.99;98368.81;4201765;28;20102;-71
2022/07/25 02:51:43;;;;;;;11.77;7.70;;;;;;;15.01;82.87;98364.50;4201237;28;20068;-71
2022/07/25 02:53:44;;;;;;;9.20;6.88;;;;;;;15.00;82.62;98362.13;4204299;28;20044;-71
2022/07/25 02:55:44;;;;;;;9.32;7.55;;;;;;;14.98;82.73;98358.97;4201973;28;20047;-71
2022/07/25 02:57:44;;;;;;;11.05;7.90;;;;;;;14.95;83.27;98357.78;4201051;28;20052;-71
2022/07/25 02:59:45;;;;;;;10.05;7.25;;;;;;;14.89;84.00;98346.28;4202053;28;20059;-71
2022/07/25 03:01:45;;;;;;;11.73;7.32;;;;;;;14.91;82.91;98348.66;4203201;28;20044;-71
2022/07/25 03:03:45;;;;;;;8.00;6.72;;;;;;;14.91;82.65;98343.09;4201721;28;20067;-71
2022/07/25 03:05:46;;;;;;;9.68;6.63;;;;;;;14.94;82.17;98342.25;4200941;28;20561;-71
2022/07/25 03:07:46;;;;;;;9.68;6.50;;;;;;;14.93;81.99;98351.81;4202118;28;20068;-71
2022/07/25 03:09:47;;;;;;;9.43;7.15;;;;;;;14.85;83.23;98337.16;4200850;28;20173;-71
2022/07/25 03:11:49;;;;;;;9.45;6.97;;;;;;;14.83;84.09;98338.78;4201924;28;20036;-71
2022/07/25 03:13:49;;;;;;;8.27;7.20;;;;;;;14.80;84.63;98339.56;4202804;28;20377;-71
2022/07/25 03:15:49;;;;;;;12.07;7.25;;;;;;;14.81;83.92;98343.94;4199796;28;20040;-71
2022/07/25 03:17:50;;;;;;;9.40;6.95;;;;;;;14.79;83.75;98335.22;4202462;28;20036;-71
2022/07/25 03:19:50;;;;;;;10.60;7.18;;;;;;;14.77;84.40;98337.63;4199430;28;20048;-71
2022/07/25 03:21:51;;;;;;;9.50;7.60;;;;;;;14.73;85.42;98334.88;4203144;28;20048;-71
2022/07/25 03:23:51;;;;;;;8.48;7.43;;;;;;;14.69;84.88;98324.94;4199782;28;20048;-71
2022/07/25 03:25:51;;;;;;;10.13;8.05;;;;;;;14.65;85.51;98335.34;4201405;28;20083;-71
2022/07/25 03:27:52;;;;;;;10.57;7.07;;;;;;;14.61;85.13;98329.78;4202616;28;20047;-71
2022/07/25 03:29:53;;;;;;;10.45;7.43;;;;;;;14.55;85.55;98323.06;4200045;28;20048;-71
2022/07/25 03:31:53;;;;;;;8.88;6.78;;;;;;;14.51;85.46;98322.28;4201700;28;20044;-71
2022/07/25 03:33:54;;;;;;;9.88;7.88;;;;;;;14.52;85.51;98318.31;4201293;28;20047;-71
2022/07/25 03:35:55;;;;;;;9.48;7.03;;;;;;;14.46;86.15;98312.38;4201328;28;20124;-71
2022/07/25 03:37:55;;;;;;;10.32;7.65;;;;;;;14.47;86.08;98318.72;4202062;28;20356;-71
2022/07/25 03:39:56;;;;;;;9.25;8.05;;;;;;;14.50;86.42;98323.50;4200855;28;20409;-71
2022/07/25 03:41:56;;;;;;;10.20;7.75;;;;;;;14.46;86.64;98312.38;4202543;28;20046;-71
2022/07/25 03:43:56;;;;;;;10.82;7.82;;;;;;;14.49;87.11;98314.38;4200907;28;20047;-71
2022/07/25 03:45:57;;;;;;;11.85;7.93;;;;;;;14.50;87.06;98317.94;4201248;28;20521;-71
2022/07/25 03:47:57;;;;;;;8.90;7.53;;;;;;;14.44;86.75;98311.19;4201360;28;20029;-71
2022/07/25 03:49:57;;;;;;;11.02;7.85;;;;;;;14.44;86.80;98314.75;4200421;28;20047;-71
2022/07/25 03:51:58;;;;;;;10.50;7.60;;;;;;;14.39;86.61;98315.16;4202322;28;20071;-71
2022/07/25 03:54:02;;;;;;;13.52;7.85;;;;;;;14.35;86.71;98306.06;4200909;28;20563;-71
2022/07/25 03:56:02;;;;;;;12.18;6.93;;;;;;;14.38;86.59;98307.22;4201341;28;20044;-71
2022/07/25 03:58:03;;;;;;;10.35;7.57;;;;;;;14.34;86.71;98310.84;4201988;28;20081;-71
2022/07/25 04:00:05;;;;;;;9.75;7.72;;;;;;;14.35;86.56;98311.63;4199358;28;20103;-71
2022/07/25 04:02:05;;;;;;;7.72;6.93;;;;;;;14.38;86.51;98307.22;4200433;28;20043;-71
2022/07/25 04:04:08;;;;;;;9.73;7.60;;;;;;;14.43;86.32;98301.25;4201400;28;20452;-70
2022/07/25 04:06:08;;;;;;;;;;;;;;;14.44;86.14;98305.59;4201740;28;20028;-71
2022/07/25 04:08:09;;;;;;;8.00;6.97;;;;;;;14.43;85.65;98307.59;4201085;28;20332;-71
2022/07/25 04:10:10;;;;;;;11.68;8.32;;;;;;;14.45;85.68;98305.22;4200528;28;20586;-71
2022/07/25 04:12:10;;;;;;;20.60;8.77;;;;;;;14.48;85.12;98307.22;4201318;28;20124;-71
2022/07/25 04:14:11;;;;;;;10.15;8.40;;;;;;;14.50;84.95;98304.03;4199276;28;20051;-71
2022/07/25 04:16:11;;;;;;;13.43;8.35;;;;;;;14.56;85.12;98296.78;4199218;28;20035;-71
2022/07/25 04:18:12;;;;;;;11.00;8.20;;;;;;;14.60;84.65;98303.94;4200616;28;20246;-71
2022/07/25 04:20:12;;;;;;;8.68;7.55;;;;;;;14.65;84.17;98304.72;4196718;28;20036;-71
2022/07/25 04:22:13;;;;;;;9.25;7.50;;;;;;;14.71;83.57;98301.06;4201016;28;20107;-71
2022/07/25 04:24:13;;;;;;;10.13;8.45;;;;;;;14.77;83.73;98291.06;4197134;28;20051;-71
2022/07/25 04:26:14;;;;;;;11.00;7.35;;;;;;;14.83;82.01;98295.00;4197918;28;20109;-71
2022/07/25 04:28:14;;;;;;;9.98;7.70;;;;;;;14.90;81.71;98277.44;4197515;28;20037;-71
2022/07/25 04:30:15;;;;;;;8.15;7.00;;;;;;;14.95;81.73;98288.13;4196731;28;20043;-71
2022/07/25 04:32:18;;;;;;;10.40;7.85;;;;;;;15.00;81.73;98281.34;4200723;28;20063;-71
2022/07/25 04:34:19;;;;;;;12.25;8.57;;;;;;;15.02;81.56;98278.91;4199269;28;20111;-71
2022/07/25 04:36:19;;;;;;;9.95;8.13;;;;;;;15.02;81.60;98276.91;4199270;28;20032;-71
2022/07/25 04:38:20;;;;;;;9.35;7.45;;;;;;;15.07;81.80;98276.50;4198863;28;20035;-71
2022/07/25 04:40:20;;;;;;;11.65;8.20;;;;;;;15.14;82.09;98272.81;4200245;28;20154;-71
2022/07/25 04:42:20;;;;;;;13.88;8.05;;;;;;;15.21;81.58;98274.75;4198956;28;20532;-71
2022/07/25 04:44:21;;;;;;;10.13;8.13;;;;;;;15.26;81.40;98277.88;4202046;28;20576;-70
2022/07/25 04:46:22;;;;;;;10.18;8.02;;;;;;;15.36;81.03;98276.19;4202949;28;20047;-70
2022/07/25 04:48:22;;;;;;;14.15;8.68;;;;;;;15.39;80.78;98273.38;4204479;28;20478;-70
2022/07/25 04:50:23;;;;;;;9.80;8.10;;;;;;;15.48;80.78;98270.09;4203049;28;20130;-71
2022/07/25 04:52:23;;;;;;;11.95;8.23;;;;;;;15.57;80.13;98267.59;4203164;28;20535;-71
2022/07/25 04:54:24;;;;;;;7.90;7.10;;;;;;;15.67;80.05;98269.47;4202354;28;20070;-71
2022/07/25 04:56:24;;;;;;;11.38;8.55;;;;;;;15.77;79.40;98258.59;4199216;28;20420;-71
2022/07/25 04:58:24;;;;;;;8.50;7.60;;;;;;;15.88;78.97;98262.81;4145678;27;20042;-70
2022/07/25 05:00:25;;;;;;;11.27;7.90;;;;;;;15.98;78.72;98261.91;4202083;28;20059;-70
2022/07/25 05:02:26;;;;;;;13.10;8.57;;;;;;;16.09;78.20;98266.56;4203400;28;20452;-71
2022/07/25 05:04:27;;;;;;;9.70;8.27;;;;;;;16.21;78.08;98263.97;4203173;28;20040;-71
2022/07/25 05:06:27;;;;;;;10.15;7.93;;;;;;;16.32;77.13;98260.25;4203945;28;20480;-71
2022/07/25 05:08:28;;;;;;;10.50;7.90;;;;;;;16.43;76.96;98256.06;4202652;28;20044;-71
2022/07/25 05:10:29;;;;;;;10.85;8.20;;;;;;;16.58;76.45;98256.63;4200794;28;20048;-71
2022/07/25 05:12:30;;;;;;;7.97;7.18;;;;;;;16.70;76.19;98258.84;4202348;28;20446;-70
2022/07/25 05:14:30;;;;;;;10.43;7.40;;;;;;;16.83;75.97;98257.03;4201556;28;20056;-70
2022/07/25 05:16:31;;;;;;;10.48;8.13;;;;;;;16.98;75.18;98251.22;4203461;28;20066;-71
2022/07/25 05:18:33;;;;;;;11.27;7.93;;;;;;;17.11;74.19;98247.34;4202123;28;20227;-71
2022/07/25 05:20:33;;;;;;;8.75;7.20;;;;;;;17.27;73.49;98255.06;4201586;28;20082;-71
2022/07/25 05:22:33;;;;;;;12.20;8.30;;;;;;;17.42;74.53;98253.56;4201329;28;20084;-71
2022/07/25 05:24:34;;;;;;;10.95;8.80;;;;;;;17.56;74.39;98249.69;4202650;28;20175;-71
2022/07/25 05:26:35;;;;;;;10.23;8.05;;;;;;;17.73;73.25;98250.59;4202643;28;20052;-70
2022/07/25 05:28:35;;;;;;;8.80;7.00;;;;;;;17.84;72.77;98244.75;4202847;28;20051;-71
2022/07/25 05:30:36;;;;;;;8.13;7.15;;;;;;;17.94;72.48;98240.94;4203062;28;20071;-71
2022/07/25 05:32:36;;;;;;;9.40;7.45;;;;;;;18.05;71.35;98251.91;4202633;28;20478;-71
2022/07/25 05:34:37;;;;;;;9.82;7.30;;;;;;;18.15;70.74;98245.28;4200438;28;20067;-71
2022/07/25 05:36:37;;;;;;;8.52;7.32;;;;;;;18.26;70.78;98245.81;4199915;28;20036;-71
2022/07/25 05:38:37;;;;;;;10.32;7.28;;;;;;;18.38;70.79;98238.75;4200176;28;20553;-71
2022/07/25 05:40:38;;;;;;;8.82;7.35;;;;;;;18.52;70.62;98241.22;4202776;28;20637;-70
2022/07/25 05:42:38;;;;;;;8.50;7.60;;;;;;;18.66;71.08;98240.91;4199179;28;20046;-70
2022/07/25 05:44:39;;;;;;;8.48;6.60;;;;;;;18.80;68.58;98240.56;4203334;28;20032;-70
2022/07/25 05:46:39;;;;;;;8.25;7.43;;;;;;;18.92;67.87;98235.44;4202309;28;20052;-70
2022/07/25 05:48:40;;;;;;;9.18;7.82;;;;;;;19.05;68.39;98237.09;4203470;28;20414;-70
2022/07/25 05:50:40;;;;;;;8.05;7.22;;;;;;;19.20;69.01;98226.28;4203307;28;20070;-70
2022/07/25 05:52:41;;;;;;;9.20;7.68;;;;;;;19.38;69.03;98220.19;4202346;28;20655;-70
2022/07/25 05:54:41;;;;;;;10.27;8.15;;;;;;;19.55;69.15;98224.50;4202681;28;20086;-70
2022/07/25 05:56:42;;;;;;;13.23;7.85;;;;;;;19.72;68.55;98227.28;4201925;28;20040;-70
2022/07/25 05:58:42;;;;;;;9.43;8.00;;;;;;;19.85;67.72;98228.06;4200375;28;20052;-70
2022/07/25 06:00:43;;;;;;;9.98;7.97;;;;;;;19.97;66.60;98230.13;4201889;28;20028;-70
2022/07/25 06:02:43;;;;;;;8.85;7.95;;;;;;;20.08;66.37;98208.13;4200848;28;20122;-70
2022/07/25 06:04:43;;;;;;;8.38;7.45;;;;;;;20.18;64.72;98215.41;4203472;28;20461;-71
2022/07/25 06:06:49;;;;;;;9.77;7.05;;;;;;;20.26;65.93;98209.56;4200817;28;20097;-71
2022/07/25 06:08:50;;;;;;;9.45;8.48;;;;;;;20.39;66.38;98216.00;4200619;28;20043;-71
2022/07/25 06:10:50;;;;;;;9.75;8.00;;;;;;;20.50;65.94;98210.84;4201749;28;20040;-71
2022/07/25 06:12:50;;;;;;;8.90;8.00;;;;;;;20.63;64.31;98208.81;4202767;28;20082;-71
2022/07/25 06:14:51;;;;;;;10.18;8.13;;;;;;;20.74;64.57;98205.63;4202668;28;20564;-71
2022/07/25 06:16:51;;;;;;;8.50;7.60;;;;;;;20.85;64.12;98196.81;4195176;28;20051;-70
2022/07/25 06:18:52;;;;;;;8.65;7.65;;;;;;;20.94;64.00;98194.13;4196621;28;20040;-70
2022/07/25 06:20:52;;;;;;;9.25;7.32;;;;;;;21.07;63.78;98192.03;4196082;28;20051;-71
2022/07/25 06:22:52;;;;;;;8.88;7.95;;;;;;;21.16;63.46;98194.13;4196595;28;20052;-71
2022/07/25 06:24:53;;;;;;;8.88;7.60;;;;;;;21.27;63.60;98186.16;4196073;28;20043;-71
2022/07/25 06:26:53;;;;;;;8.40;7.50;;;;;;;21.41;63.76;98190.44;4195944;28;20052;-71
2022/07/25 06:28:53;;;;;;;10.30;8.30;;;;;;;21.55;63.55;98187.91;4194210;28;20044;-71
2022/07/25 06:30:54;;;;;;;9.45;8.18;;;;;;;21.67;62.91;98186.25;4194602;28;20158;-71
2022/07/25 06:32:54;;;;;;;9.32;7.93;;;;;;;21.77;62.45;98187.88;4198686;28;20055;-71
2022/07/25 06:34:54;;;;;;;10.65;7.65;;;;;;;21.92;61.89;98178.88;4197295;28;20048;-71
2022/07/25 06:36:56;;;;;;;8.88;7.97;;;;;;;22.09;62.31;98185.88;4201510;28;20077;-71
2022/07/25 06:38:56;;;;;;;10.20;8.20;;;;;;;22.24;61.60;98186.88;4201317;28;20487;-71
2022/07/25 06:40:56;;;;;;;10.98;8.32;;;;;;;22.40;60.96;98185.84;4203317;28;20054;-71
2022/07/25 06:42:57;;;;;;;10.38;8.38;;;;;;;22.59;60.06;98181.03;4201973;28;20066;-71
2022/07/25 06:44:57;;;;;;;9.38;8.27;;;;;;;22.83;59.10;98173.56;4201148;28;20403;-71
2022/07/25 06:46:58;;;;;;;9.60;8.60;;;;;;;22.96;58.67;98167.81;4202408;28;20042;-71
2022/07/25 06:48:58;;;;;;;10.23;8.82;;;;;;;23.12;58.88;98167.50;4201593;28;20036;-71
2022/07/25 06:50:58;;;;;;;9.43;8.43;;;;;;;23.30;58.22;98163.09;4202861;28;20542;-71
2022/07/25 06:52:59;;;;;;;9.85;8.82;;;;;;;23.41;58.05;98163.38;4201600;28;20122;-71
2022/07/25 06:54:59;;;;;;;10.02;8.40;;;;;;;23.54;56.90;98159.16;4203207;28;20093;-71
2022/07/25 06:57:00;;;;;;;10.23;9.07;;;;;;;23.66;57.75;98148.16;4202860;28;20024;-71
2022/07/25 06:59:00;;;;;;;9.45;8.32;;;;;;;23.89;56.57;98155.16;4201732;28;20036;-71
2022/07/25 07:01:00;;;;;;;10.60;8.68;;;;;;;24.33;55.39;98144.19;4201427;28;20151;-71
2022/07/25 07:03:01;;;;;;;10.32;8.07;;;;;;;24.63;53.58;98151.53;4201987;28;20047;-71
2022/07/25 07:05:02;;;;;;;12.73;8.60;;;;;;;24.80;52.52;98145.44;4201021;28;20087;-71
2022/07/25 07:07:02;;;;;;;11.38;8.63;;;;;;;24.81;52.83;98144.97;4199809;28;20380;-71
2022/07/25 07:09:03;;;;;;;11.65;8.07;;;;;;;24.86;52.83;98135.03;4200642;28;20032;-71
2022/07/25 07:11:03;;;;;;;10.35;8.40;;;;;;;24.92;51.57;98138.78;4202202;28;20044;-71
2022/07/25 07:13:06;;;;;;;10.88;8.63;;;;;;;25.24;51.21;98136.31;4202686;28;20043;-71
2022/07/25 07:15:07;;;;;;;9.52;8.52;;;;;;;25.39;50.49;98137.91;4201730;28;20058;-71
2022/07/25 07:17:07;;;;;;;9.77;8.77;;;;;;;25.49;49.67;98141.44;4200667;28;20123;-71
2022/07/25 07:19:09;;;;;;;9.25;8.20;;;;;;;25.49;49.77;98138.63;4201902;28;20044;-71
2022/07/25 07:21:10;;;;;;;10.43;8.40;;;;;;;25.47;49.62;98144.75;4201806;28;20040;-71
2022/07/25 07:23:10;;;;;;;8.68;7.82;;;;;;;25.62;50.07;98149.63;4200606;28;20093;-71
2022/07/25 07:25:13;;;;;;;9.52;8.52;;;;;;;25.76;49.38;98138.34;4202156;28;20044;-71
2022/07/25 07:27:13;;;;;;;9.75;8.73;;;;;;;25.90;48.41;98138.81;4202554;28;20121;-71
2022/07/25 07:29:14;;;;;;;8.73;7.93;;;;;;;26.02;48.67;98144.19;4200418;28;20486;-71
2022/07/25 07:31:16;;;;;;;9.32;8.40;;;;;;;26.19;48.34;98130.25;4201914;28;20044;-71
2022/07/25 07:33:16;;;;;;;;;;;;;;;26.34;47.31;98138.75;4202636;28;20036;-71
2022/07/25 07:35:18;;;;;;;10.00;7.93;;;;;;;26.44;47.21;98137.34;4202018;28;19918;-71
2022/07/25 07:37:18;;;;;;;10.15;8.68;;;;;;;26.57;46.26;98134.19;4201922;28;20093;-71
2022/07/25 07:39:18;;;;;;;9.38;8.38;;;;;;;26.80;45.54;98133.19;4201297;28;20264;-71
2022/07/25 07:41:19;;;;;;;9.00;8.10;;;;;;;26.61;45.70;98126.25;4202338;28;20144;-71
2022/07/25 07:43:19;;;;;;;9.55;8.15;;;;;;;26.66;45.76;98119.88;4201620;28;20048;-71
2022/07/25 07:45:22;;;;;;;9.00;7.97;;;;;;;26.88;44.68;98117.28;4201120;28;20528;-71
2022/07/25 07:47:22;;;;;;;9.65;8.40;;;;;;;27.00;44.74;98112.56;4202200;28;20052;-71
2022/07/25 07:49:23;;;;;;;9.10;8.18;;;;;;;27.06;44.55;98121.94;4200638;28;20557;-71
2022/07/25 07:51:23;;;;;;;9.68;8.45;;;;;;;27.09;44.58;98117.31;4201906;28;20461;-71
2022/07/25 07:55:42;;;;;;;9.60;7.95;;;;;;;27.07;44.70;98108.53;4201527;28;20067;-71
2022/07/25 07:57:43;;;;;;;10.55;8.55;;;;;;;27.08;44.51;98110.09;4202074;28;20076;-71
2022/07/25 07:59:43;;;;;;;8.70;7.90;;;;;;;27.00;44.17;98115.38;4201448;28;20396;-71
2022/07/25 08:01:44;;;;;;;8.63;7.72;;;;;;;27.11;43.91;98107.03;4201604;28;20040;-71
2022/07/25 08:03:44;;;;;;;10.13;8.98;;;;;;;27.26;44.11;98111.81;4200478;28;20068;-71
2022/07/25 08:05:45;;;;;;;8.70;7.80;;;;;;;27.30;43.43;98121.66;4200517;28;20547;-71
2022/07/25 08:07:46;;;;;;;9.85;8.45;;;;;;;27.44;42.43;98111.50;4201294;28;20377;-71
2022/07/25 08:09:46;;;;;;;8.95;8.10;;;;;;;27.49;42.45;98107.16;4202464;28;20547;-71
2022/07/25 08:11:46;;;;;;;9.88;8.68;;;;;;;27.32;43.12;98107.78;4200970;28;20079;-71
2022/07/25 08:13:47;;;;;;;8.75;7.95;;;;;;;27.53;41.43;98108.47;4202136;28;20041;-71
2022/07/25 08:15:51;;;;;;;8.70;7.88;;;;;;;27.68;41.71;98116.91;4205806;28;20270;-71
2022/07/25 08:17:51;;;;;;;8.38;7.57;;;;;;;27.84;42.02;98106.97;4205090;28;20052;-71
2022/07/25 08:19:52;;;;;;;9.20;8.30;;;;;;;27.93;42.00;98106.78;4204373;28;20380;-71
2022/07/25 08:21:52;;;;;;;8.45;7.70;;;;;;;28.01;41.14;98096.50;4203684;28;20042;-71
2022/07/25 08:23:53;;;;;;;11.25;8.98;;;;;;;28.01;41.19;98104.25;4205942;28;20040;-71
2022/07/25 08:25:53;;;;;;;8.40;7.55;;;;;;;28.07;41.10;98110.78;4204842;28;20098;-71
2022/07/25 08:27:54;;;;;;;9.20;8.27;;;;;;;28.25;40.29;98111.16;4203892;28;20127;-71
2022/07/25 08:29:54;;;;;;;8.63;7.63;;;;;;;28.18;40.80;98105.16;4203791;28;20061;-71
2022/07/25 08:31:55;;;;;;;8.98;7.55;;;;;;;28.25;39.70;98099.78;4201862;28;20125;-71
2022/07/25 08:33:55;;;;;;;8.70;7.80;;;;;;;28.20;40.62;98099.72;4205099;28;20342;-71
2022/07/25 08:35:57;;;;;;;9.10;8.25;;;;;;;28.14;40.68;98098.94;4202964;28;20044;-71
2022/07/25 08:37:59;;;;;;;9.00;8.15;;;;;;;28.24;39.76;98103.13;4204281;28;20361;-71
2022/07/25 08:39:59;;;;;;;10.57;8.18;;;;;;;28.43;39.58;98095.75;4203868;28;20426;-71
2022/07/25 08:42:01;;;;;;;12.15;8.15;;;;;;;28.45;39.51;98101.72;4204003;28;20467;-71
2022/07/25 08:44:02;;;;;;;;;;;;;;;28.58;38.56;98103.34;4204715;28;20273;-71
2022/07/25 08:46:04;;;;;;;9.13;8.23;;;;;;;28.66;39.10;98099.50;4203592;28;19920;-71
2022/07/25 08:48:05;;;;;;;10.07;8.30;;;;;;;28.78;38.58;98091.78;4204841;28;20032;-71
2022/07/25 08:50:08;;;;;;;9.82;8.32;;;;;;;28.85;38.29;98088.47;4203997;28;20421;-71
2022/07/25 08:52:09;;;;;;;8.25;7.55;;;;;;;28.87;37.92;98085.09;4204080;28;20058;-71
2022/07/25 08:54:09;;;;;;;8.57;7.65;;;;;;;28.77;38.85;98078.84;4204565;28;20023;-72
2022/07/25 08:56:10;;;;;;;9.63;8.00;;;;;;;28.86;38.40;98089.22;4204767;28;20035;-71
2022/07/25 08:58:11;;;;;;;8.85;7.55;;;;;;;28.88;37.88;98081.75;4203824;28;20381;-71
2022/07/25 09:00:15;;;;;;;10.57;7.60;;;;;;;28.92;37.79;98073.75;4203776;28;20031;-71
2022/07/25 09:02:16;;;;;;;9.93;8.60;;;;;;;28.94;37.69;98074.03;4205313;28;20368;-72
2022/07/25 09:04:16;;;;;;;8.70;7.80;;;;;;;28.83;38.41;98080.44;4204197;28;20032;-71
2022/07/25 09:06:19;;;;;;;10.80;7.80;;;;;;;29.06;37.80;98069.94;4202555;28;20028;-71
2022/07/25 09:08:19;;;;;;;8.45;7.68;;;;;;;29.23;37.13;98067.13;4203551;28;20123;-72
2022/07/25 09:10:23;;;;;;;8.75;7.95;;;;;;;29.29;36.95;98061.41;4205041;28;20115;-72
2022/07/25 09:12:27;;;;;;;9.65;7.97;;;;;;;29.36;37.04;98058.81;4203489;28;20059;-72
2022/07/25 09:14:28;;;;;;;9.32;7.72;;;;;;;29.41;36.84;98047.97;4203546;28;20046;-72
2022/07/25 09:16:34;;;;;;;8.40;7.60;;;;;;;29.50;36.81;98056.28;4203158;28;20051;-71
2022/07/25 09:18:38;;;;;;;9.32;8.43;;;;;;;29.53;36.54;98063.78;4201939;28;20388;-72
2022/07/25 09:20:46;;;;;;;9.10;8.20;;;;;;;29.47;36.68;98060.16;4203658;28;20058;-72
2022/07/25 09:22:47;;;;;;;8.70;7.60;;;;;;;29.52;36.63;98048.00;4204315;28;20040;-72
2022/07/25 09:24:48;;;;;;;8.77;7.97;;;;;;;29.53;36.72;98049.53;4203538;28;20058;-72
2022/07/25 09:26:51;;;;;;;8.82;7.93;;;;;;;29.58;37.27;98040.22;4204093;28;20048;-72
2022/07/25 09:28:52;;;;;;;8.60;7.53;;;;;;;29.28;37.25;98046.38;4203365;28;20530;-72
2022/07/25 09:30:55;;;;;;;9.02;8.13;;;;;;;29.40;36.77;98038.63;4203118;28;20329;-72